sensor_id;sensor_type;location;lat;lon;timestamp;temperature;humidity
3644;DHT22;1838;50.742;7.158;2023-07-13T00:00:27;19.70;93.70
3644;DHT22;1838;50.742;7.158;2023-07-13T00:02:52;19.60;94.70
3644;DHT22;1838;50.742;7.158;2023-07-13T00:05:22;19.50;95.90
3644;DHT22;1838;50.742;7.158;2023-07-13T00:07:49;19.30;97.20
3644;DHT22;1838;50.742;7.158;2023-07-13T00:10:15;19.10;99.00
3644;DHT22;1838;50.742;7.158;2023-07-13T00:12:41;19.00;99.90
3644;DHT22;1838;50.742;7.158;2023-07-13T00:15:14;18.90;99.90
3644;DHT22;1838;50.742;7.158;2023-07-13T00:17:42;18.90;99.90
3644;DHT22;1838;50.742;7.158;2023-07-13T00:20:10;18.90;99.90
3644;DHT22;1838;50.742;7.158;2023-07-13T00:22:36;18.80;99.90
3644;DHT22;1838;50.742;7.158;2023-07-13T00:25:03;18.80;99.90
3644;DHT22;1838;50.742;7.158;2023-07-13T00:27:28;18.70;99.90
3644;DHT22;1838;50.742;7.158;2023-07-13T00:29:57;18.70;99.90
3644;DHT22;1838;50.742;7.158;2023-07-13T00:32:23;18.50;99.90
3644;DHT22;1838;50.742;7.158;2023-07-13T00:34:50;18.50;99.90
3644;DHT22;1838;50.742;7.158;2023-07-13T00:37:16;18.40;99.90
3644;DHT22;1838;50.742;7.158;2023-07-13T00:39:41;18.40;99.90
3644;DHT22;1838;50.742;7.158;2023-07-13T00:42:07;18.30;99.90
3644;DHT22;1838;50.742;7.158;2023-07-13T00:44:33;18.20;99.90
3644;DHT22;1838;50.742;7.158;2023-07-13T00:46:58;18.10;99.90
3644;DHT22;1838;50.742;7.158;2023-07-13T00:49:26;18.00;99.90
3644;DHT22;1838;50.742;7.158;2023-07-13T00:52:05;18.00;99.90
3644;DHT22;1838;50.742;7.158;2023-07-13T00:54:36;17.90;99.90
3644;DHT22;1838;50.742;7.158;2023-07-13T00:57:06;17.80;99.90
3644;DHT22;1838;50.742;7.158;2023-07-13T00:59:34;17.80;99.90
3644;DHT22;1838;50.742;7.158;2023-07-13T01:02:00;17.70;99.90
3644;DHT22;1838;50.742;7.158;2023-07-13T01:04:26;17.60;99.90
3644;DHT22;1838;50.742;7.158;2023-07-13T01:06:52;17.50;99.90
3644;DHT22;1838;50.742;7.158;2023-07-13T01:09:18;17.40;99.90
3644;DHT22;1838;50.742;7.158;2023-07-13T01:11:46;17.40;99.90
3644;DHT22;1838;50.742;7.158;2023-07-13T01:14:12;17.30;99.90
3644;DHT22;1838;50.742;7.158;2023-07-13T01:16:39;17.30;99.90
3644;DHT22;1838;50.742;7.158;2023-07-13T01:19:33;17.30;99.90
3644;DHT22;1838;50.742;7.158;2023-07-13T01:22:02;17.20;99.90
3644;DHT22;1838;50.742;7.158;2023-07-13T01:24:28;17.10;99.90
3644;DHT22;1838;50.742;7.158;2023-07-13T01:26:54;17.10;99.90
3644;DHT22;1838;50.742;7.158;2023-07-13T01:29:21;17.00;99.90
3644;DHT22;1838;50.742;7.158;2023-07-13T01:31:46;17.00;99.90
3644;DHT22;1838;50.742;7.158;2023-07-13T01:34:12;17.00;99.90
3644;DHT22;1838;50.742;7.158;2023-07-13T01:36:38;17.00;99.90
3644;DHT22;1838;50.742;7.158;2023-07-13T01:39:04;16.80;99.90
3644;DHT22;1838;50.742;7.158;2023-07-13T01:41:29;16.80;99.90
3644;DHT22;1838;50.742;7.158;2023-07-13T01:43:55;16.80;99.90
3644;DHT22;1838;50.742;7.158;2023-07-13T01:46:20;16.70;99.90
3644;DHT22;1838;50.742;7.158;2023-07-13T01:48:46;16.60;99.90
3644;DHT22;1838;50.742;7.158;2023-07-13T01:51:11;16.70;99.90
3644;DHT22;1838;50.742;7.158;2023-07-13T01:53:37;16.60;99.90
3644;DHT22;1838;50.742;7.158;2023-07-13T01:56:03;16.60;99.90
3644;DHT22;1838;50.742;7.158;2023-07-13T01:58:28;16.50;99.90
3644;DHT22;1838;50.742;7.158;2023-07-13T02:00:54;16.60;99.90
3644;DHT22;1838;50.742;7.158;2023-07-13T02:03:19;16.60;99.90
3644;DHT22;1838;50.742;7.158;2023-07-13T02:05:45;16.60;99.90
3644;DHT22;1838;50.742;7.158;2023-07-13T02:08:11;16.60;99.90
3644;DHT22;1838;50.742;7.158;2023-07-13T02:10:37;16.60;99.90
3644;DHT22;1838;50.742;7.158;2023-07-13T02:13:05;16.60;99.90
3644;DHT22;1838;50.742;7.158;2023-07-13T02:15:31;16.60;99.90
3644;DHT22;1838;50.742;7.158;2023-07-13T02:17:56;16.70;99.90
3644;DHT22;1838;50.742;7.158;2023-07-13T02:20:24;16.70;99.90
3644;DHT22;1838;50.742;7.158;2023-07-13T02:22:49;16.70;99.90
3644;DHT22;1838;50.742;7.158;2023-07-13T02:25:15;16.70;99.90
3644;DHT22;1838;50.742;7.158;2023-07-13T02:27:40;16.70;99.90
3644;DHT22;1838;50.742;7.158;2023-07-13T02:30:06;16.70;99.90
3644;DHT22;1838;50.742;7.158;2023-07-13T02:32:32;16.70;99.90
3644;DHT22;1838;50.742;7.158;2023-07-13T02:34:59;16.80;99.90
3644;DHT22;1838;50.742;7.158;2023-07-13T02:37:24;16.70;99.90
3644;DHT22;1838;50.742;7.158;2023-07-13T02:39:50;16.80;99.90
3644;DHT22;1838;50.742;7.158;2023-07-13T02:42:15;16.70;99.90
3644;DHT22;1838;50.742;7.158;2023-07-13T02:44:41;16.80;99.90
3644;DHT22;1838;50.742;7.158;2023-07-13T02:47:07;16.80;99.90
3644;DHT22;1838;50.742;7.158;2023-07-13T02:49:32;16.90;99.90
3644;DHT22;1838;50.742;7.158;2023-07-13T02:51:58;16.90;99.90
3644;DHT22;1838;50.742;7.158;2023-07-13T02:54:23;16.90;99.90
3644;DHT22;1838;50.742;7.158;2023-07-13T02:56:49;16.80;99.90
3644;DHT22;1838;50.742;7.158;2023-07-13T02:59:14;16.80;99.90
3644;DHT22;1838;50.742;7.158;2023-07-13T03:01:40;16.80;99.90
3644;DHT22;1838;50.742;7.158;2023-07-13T03:04:06;16.80;99.90
3644;DHT22;1838;50.742;7.158;2023-07-13T03:06:32;16.80;99.90
3644;DHT22;1838;50.742;7.158;2023-07-13T03:08:58;16.80;99.90
3644;DHT22;1838;50.742;7.158;2023-07-13T03:11:23;16.80;99.90
3644;DHT22;1838;50.742;7.158;2023-07-13T03:13:49;16.90;99.90
3644;DHT22;1838;50.742;7.158;2023-07-13T03:16:15;16.80;99.90
3644;DHT22;1838;50.742;7.158;2023-07-13T03:18:41;16.80;99.90
3644;DHT22;1838;50.742;7.158;2023-07-13T03:21:06;16.80;99.90
3644;DHT22;1838;50.742;7.158;2023-07-13T03:23:32;16.90;99.90
3644;DHT22;1838;50.742;7.158;2023-07-13T03:26:03;16.90;99.90
3644;DHT22;1838;50.742;7.158;2023-07-13T03:28:28;16.90;99.90
3644;DHT22;1838;50.742;7.158;2023-07-13T03:31:06;16.90;99.90
3644;DHT22;1838;50.742;7.158;2023-07-13T03:33:32;16.90;99.90
3644;DHT22;1838;50.742;7.158;2023-07-13T03:35:57;16.90;99.90
3644;DHT22;1838;50.742;7.158;2023-07-13T03:38:23;16.80;99.90
3644;DHT22;1838;50.742;7.158;2023-07-13T03:40:49;16.80;99.90
3644;DHT22;1838;50.742;7.158;2023-07-13T03:43:14;16.80;99.90
3644;DHT22;1838;50.742;7.158;2023-07-13T03:45:40;16.80;99.90
3644;DHT22;1838;50.742;7.158;2023-07-13T03:48:06;16.90;99.90
3644;DHT22;1838;50.742;7.158;2023-07-13T03:50:31;16.90;99.90
3644;DHT22;1838;50.742;7.158;2023-07-13T03:52:58;16.90;99.90
3644;DHT22;1838;50.742;7.158;2023-07-13T03:55:23;16.90;99.90
3644;DHT22;1838;50.742;7.158;2023-07-13T03:57:57;16.90;99.90
3644;DHT22;1838;50.742;7.158;2023-07-13T04:00:23;16.90;99.90
3644;DHT22;1838;50.742;7.158;2023-07-13T04:02:50;17.00;99.90
3644;DHT22;1838;50.742;7.158;2023-07-13T04:05:15;17.20;99.90
3644;DHT22;1838;50.742;7.158;2023-07-13T04:07:41;17.30;99.90
3644;DHT22;1838;50.742;7.158;2023-07-13T04:10:07;17.50;99.90
3644;DHT22;1838;50.742;7.158;2023-07-13T04:12:32;17.60;99.90
3644;DHT22;1838;50.742;7.158;2023-07-13T04:14:58;17.80;99.90
3644;DHT22;1838;50.742;7.158;2023-07-13T04:17:23;18.00;99.90
3644;DHT22;1838;50.742;7.158;2023-07-13T04:19:49;18.30;99.90
3644;DHT22;1838;50.742;7.158;2023-07-13T04:22:14;18.60;99.90
3644;DHT22;1838;50.742;7.158;2023-07-13T04:24:40;18.70;99.90
3644;DHT22;1838;50.742;7.158;2023-07-13T04:27:06;18.90;99.90
3644;DHT22;1838;50.742;7.158;2023-07-13T04:29:32;19.10;99.90
3644;DHT22;1838;50.742;7.158;2023-07-13T04:31:57;19.20;99.90
3644;DHT22;1838;50.742;7.158;2023-07-13T04:34:23;19.60;99.90
3644;DHT22;1838;50.742;7.158;2023-07-13T04:36:49;19.90;99.90
3644;DHT22;1838;50.742;7.158;2023-07-13T04:39:15;20.10;99.90
3644;DHT22;1838;50.742;7.158;2023-07-13T04:41:40;20.20;99.90
3644;DHT22;1838;50.742;7.158;2023-07-13T04:44:06;20.80;99.90
3644;DHT22;1838;50.742;7.158;2023-07-13T04:46:31;21.20;99.90
3644;DHT22;1838;50.742;7.158;2023-07-13T04:48:57;21.60;99.90
3644;DHT22;1838;50.742;7.158;2023-07-13T04:51:24;21.90;99.90
3644;DHT22;1838;50.742;7.158;2023-07-13T04:53:50;22.30;99.90
3644;DHT22;1838;50.742;7.158;2023-07-13T04:56:15;22.50;99.90
3644;DHT22;1838;50.742;7.158;2023-07-13T04:58:41;22.90;99.90
3644;DHT22;1838;50.742;7.158;2023-07-13T05:01:07;23.20;99.90
3644;DHT22;1838;50.742;7.158;2023-07-13T05:03:34;23.70;99.90
3644;DHT22;1838;50.742;7.158;2023-07-13T05:06:03;23.80;99.90
3644;DHT22;1838;50.742;7.158;2023-07-13T05:08:29;24.20;97.90
3644;DHT22;1838;50.742;7.158;2023-07-13T05:10:55;24.20;96.60
3644;DHT22;1838;50.742;7.158;2023-07-13T05:13:20;24.30;96.70
3644;DHT22;1838;50.742;7.158;2023-07-13T05:15:54;24.60;96.50
3644;DHT22;1838;50.742;7.158;2023-07-13T05:18:20;24.60;94.40
3644;DHT22;1838;50.742;7.158;2023-07-13T05:20:45;24.40;94.90
3644;DHT22;1838;50.742;7.158;2023-07-13T05:23:11;24.60;94.20
3644;DHT22;1838;50.742;7.158;2023-07-13T05:25:36;24.60;94.20
3644;DHT22;1838;50.742;7.158;2023-07-13T05:28:02;24.60;94.00
3644;DHT22;1838;50.742;7.158;2023-07-13T05:30:27;25.00;94.50
3644;DHT22;1838;50.742;7.158;2023-07-13T05:32:53;24.70;93.10
3644;DHT22;1838;50.742;7.158;2023-07-13T05:35:18;24.80;93.20
3644;DHT22;1838;50.742;7.158;2023-07-13T05:37:44;25.30;92.30
3644;DHT22;1838;50.742;7.158;2023-07-13T05:40:10;25.70;92.20
3644;DHT22;1838;50.742;7.158;2023-07-13T05:42:35;25.90;90.50
3644;DHT22;1838;50.742;7.158;2023-07-13T05:45:02;26.30;91.30
3644;DHT22;1838;50.742;7.158;2023-07-13T05:47:27;26.80;89.40
3644;DHT22;1838;50.742;7.158;2023-07-13T05:49:53;27.30;87.00
3644;DHT22;1838;50.742;7.158;2023-07-13T05:52:19;27.40;82.10
3644;DHT22;1838;50.742;7.158;2023-07-13T05:54:44;27.30;80.50
3644;DHT22;1838;50.742;7.158;2023-07-13T05:57:10;27.40;79.20
3644;DHT22;1838;50.742;7.158;2023-07-13T05:59:35;27.30;77.70
3644;DHT22;1838;50.742;7.158;2023-07-13T06:02:01;27.10;78.50
3644;DHT22;1838;50.742;7.158;2023-07-13T06:04:26;27.10;77.50
3644;DHT22;1838;50.742;7.158;2023-07-13T06:06:52;26.90;76.90
3644;DHT22;1838;50.742;7.158;2023-07-13T06:09:18;26.50;77.60
3644;DHT22;1838;50.742;7.158;2023-07-13T06:11:43;26.20;79.10
3644;DHT22;1838;50.742;7.158;2023-07-13T06:14:10;25.80;79.20
3644;DHT22;1838;50.742;7.158;2023-07-13T06:16:35;25.70;81.40
3644;DHT22;1838;50.742;7.158;2023-07-13T06:19:01;24.90;82.30
3644;DHT22;1838;50.742;7.158;2023-07-13T06:21:26;24.70;85.20
3644;DHT22;1838;50.742;7.158;2023-07-13T06:23:52;24.30;86.40
3644;DHT22;1838;50.742;7.158;2023-07-13T06:26:19;23.90;90.00
3644;DHT22;1838;50.742;7.158;2023-07-13T06:28:46;23.60;91.30
3644;DHT22;1838;50.742;7.158;2023-07-13T06:31:13;23.50;93.40
3644;DHT22;1838;50.742;7.158;2023-07-13T06:33:39;23.50;93.30
3644;DHT22;1838;50.742;7.158;2023-07-13T06:36:05;23.70;93.90
3644;DHT22;1838;50.742;7.158;2023-07-13T06:38:32;24.00;94.90
3644;DHT22;1838;50.742;7.158;2023-07-13T06:40:57;24.60;93.20
3644;DHT22;1838;50.742;7.158;2023-07-13T06:43:23;25.00;92.30
3644;DHT22;1838;50.742;7.158;2023-07-13T06:45:50;25.50;91.10
3644;DHT22;1838;50.742;7.158;2023-07-13T06:48:17;26.00;90.20
3644;DHT22;1838;50.742;7.158;2023-07-13T06:50:43;26.50;88.60
3644;DHT22;1838;50.742;7.158;2023-07-13T06:53:10;26.90;85.10
3644;DHT22;1838;50.742;7.158;2023-07-13T06:55:35;27.30;82.50
3644;DHT22;1838;50.742;7.158;2023-07-13T06:58:01;27.80;79.80
3644;DHT22;1838;50.742;7.158;2023-07-13T07:00:26;28.10;78.10
3644;DHT22;1838;50.742;7.158;2023-07-13T07:02:52;28.30;76.00
3644;DHT22;1838;50.742;7.158;2023-07-13T07:05:18;28.10;75.60
3644;DHT22;1838;50.742;7.158;2023-07-13T07:07:49;28.60;75.90
3644;DHT22;1838;50.742;7.158;2023-07-13T07:10:14;29.00;73.20
3644;DHT22;1838;50.742;7.158;2023-07-13T07:12:40;29.50;71.50
3644;DHT22;1838;50.742;7.158;2023-07-13T07:15:06;29.80;67.90
3644;DHT22;1838;50.742;7.158;2023-07-13T07:17:31;29.90;65.60
3644;DHT22;1838;50.742;7.158;2023-07-13T07:19:57;30.20;66.10
3644;DHT22;1838;50.742;7.158;2023-07-13T07:22:22;30.50;63.50
3644;DHT22;1838;50.742;7.158;2023-07-13T07:24:48;30.80;62.80
3644;DHT22;1838;50.742;7.158;2023-07-13T07:27:13;31.10;60.70
3644;DHT22;1838;50.742;7.158;2023-07-13T07:29:39;31.40;59.80
3644;DHT22;1838;50.742;7.158;2023-07-13T07:32:04;31.70;58.80
3644;DHT22;1838;50.742;7.158;2023-07-13T07:34:30;31.90;57.60
3644;DHT22;1838;50.742;7.158;2023-07-13T07:36:59;32.00;57.20
3644;DHT22;1838;50.742;7.158;2023-07-13T07:39:26;32.20;56.20
3644;DHT22;1838;50.742;7.158;2023-07-13T07:41:51;32.00;55.80
3644;DHT22;1838;50.742;7.158;2023-07-13T07:44:17;32.10;56.20
3644;DHT22;1838;50.742;7.158;2023-07-13T07:46:42;32.10;55.50
3644;DHT22;1838;50.742;7.158;2023-07-13T07:49:08;32.20;55.20
3644;DHT22;1838;50.742;7.158;2023-07-13T07:51:33;32.30;54.10
3644;DHT22;1838;50.742;7.158;2023-07-13T07:53:59;32.10;55.20
3644;DHT22;1838;50.742;7.158;2023-07-13T07:56:25;32.10;54.60
3644;DHT22;1838;50.742;7.158;2023-07-13T07:58:51;32.00;54.60
3644;DHT22;1838;50.742;7.158;2023-07-13T08:01:16;32.00;55.00
3644;DHT22;1838;50.742;7.158;2023-07-13T08:03:42;32.00;54.40
3644;DHT22;1838;50.742;7.158;2023-07-13T08:06:07;32.10;54.80
3644;DHT22;1838;50.742;7.158;2023-07-13T08:08:34;32.00;54.10
3644;DHT22;1838;50.742;7.158;2023-07-13T08:11:03;31.90;54.40
3644;DHT22;1838;50.742;7.158;2023-07-13T08:13:28;31.80;54.80
3644;DHT22;1838;50.742;7.158;2023-07-13T08:15:54;31.70;54.30
3644;DHT22;1838;50.742;7.158;2023-07-13T08:18:19;31.60;54.60
3644;DHT22;1838;50.742;7.158;2023-07-13T08:20:45;31.50;54.90
3644;DHT22;1838;50.742;7.158;2023-07-13T08:23:10;31.60;54.50
3644;DHT22;1838;50.742;7.158;2023-07-13T08:25:36;31.60;54.80
3644;DHT22;1838;50.742;7.158;2023-07-13T08:28:03;31.70;54.90
3644;DHT22;1838;50.742;7.158;2023-07-13T08:30:29;31.90;54.80
3644;DHT22;1838;50.742;7.158;2023-07-13T08:32:54;32.10;54.40
3644;DHT22;1838;50.742;7.158;2023-07-13T08:35:20;32.30;53.90
3644;DHT22;1838;50.742;7.158;2023-07-13T08:37:46;32.60;53.30
3644;DHT22;1838;50.742;7.158;2023-07-13T08:40:11;32.80;53.00
3644;DHT22;1838;50.742;7.158;2023-07-13T08:42:45;33.00;52.60
3644;DHT22;1838;50.742;7.158;2023-07-13T08:45:33;33.10;52.30
3644;DHT22;1838;50.742;7.158;2023-07-13T08:48:11;32.70;52.40
3644;DHT22;1838;50.742;7.158;2023-07-13T08:51:04;33.00;52.30
3644;DHT22;1838;50.742;7.158;2023-07-13T08:53:42;33.10;51.40
3644;DHT22;1838;50.742;7.158;2023-07-13T08:56:16;32.90;51.00
3644;DHT22;1838;50.742;7.158;2023-07-13T08:58:43;33.10;51.40
3644;DHT22;1838;50.742;7.158;2023-07-13T09:03:57;33.70;50.60
3644;DHT22;1838;50.742;7.158;2023-07-13T09:06:33;33.80;50.00
3644;DHT22;1838;50.742;7.158;2023-07-13T09:09:03;33.90;49.20
3644;DHT22;1838;50.742;7.158;2023-07-13T09:16:44;33.70;49.10
3644;DHT22;1838;50.742;7.158;2023-07-13T09:19:16;33.40;47.90
3644;DHT22;1838;50.742;7.158;2023-07-13T09:21:44;33.00;48.10
3644;DHT22;1838;50.742;7.158;2023-07-13T09:24:35;32.70;48.80
3644;DHT22;1838;50.742;7.158;2023-07-13T09:27:02;32.70;49.40
3644;DHT22;1838;50.742;7.158;2023-07-13T09:29:33;32.40;48.80
3644;DHT22;1838;50.742;7.158;2023-07-13T09:32:02;32.40;49.50
3644;DHT22;1838;50.742;7.158;2023-07-13T09:34:29;32.30;49.50
3644;DHT22;1838;50.742;7.158;2023-07-13T09:36:56;32.10;49.40
3644;DHT22;1838;50.742;7.158;2023-07-13T09:39:31;31.90;49.40
3644;DHT22;1838;50.742;7.158;2023-07-13T09:42:20;31.80;50.10
3644;DHT22;1838;50.742;7.158;2023-07-13T09:44:54;31.50;49.90
3644;DHT22;1838;50.742;7.158;2023-07-13T09:47:26;30.90;50.90
3644;DHT22;1838;50.742;7.158;2023-07-13T09:49:56;30.70;51.10
3644;DHT22;1838;50.742;7.158;2023-07-13T09:52:23;30.50;51.40
3644;DHT22;1838;50.742;7.158;2023-07-13T09:54:50;30.20;52.30
3644;DHT22;1838;50.742;7.158;2023-07-13T09:57:18;30.10;52.90
3644;DHT22;1838;50.742;7.158;2023-07-13T09:59:47;30.00;53.30
3644;DHT22;1838;50.742;7.158;2023-07-13T10:02:34;29.90;53.90
3644;DHT22;1838;50.742;7.158;2023-07-13T10:05:10;29.60;53.70
3644;DHT22;1838;50.742;7.158;2023-07-13T10:07:43;29.40;54.90
3644;DHT22;1838;50.742;7.158;2023-07-13T10:10:20;29.30;55.00
3644;DHT22;1838;50.742;7.158;2023-07-13T10:12:46;29.30;56.20
3644;DHT22;1838;50.742;7.158;2023-07-13T10:15:19;29.10;56.20
3644;DHT22;1838;50.742;7.158;2023-07-13T10:17:45;29.20;56.30
3644;DHT22;1838;50.742;7.158;2023-07-13T10:20:11;28.90;56.10
3644;DHT22;1838;50.742;7.158;2023-07-13T10:25:17;29.40;55.40
3644;DHT22;1838;50.742;7.158;2023-07-13T10:27:44;29.70;55.10
3644;DHT22;1838;50.742;7.158;2023-07-13T10:30:24;30.10;54.60
3644;DHT22;1838;50.742;7.158;2023-07-13T10:32:59;30.30;55.10
3644;DHT22;1838;50.742;7.158;2023-07-13T10:35:27;30.30;55.40
3644;DHT22;1838;50.742;7.158;2023-07-13T10:38:05;30.10;55.50
3644;DHT22;1838;50.742;7.158;2023-07-13T10:40:42;29.90;55.70
3644;DHT22;1838;50.742;7.158;2023-07-13T10:43:18;29.70;56.40
3644;DHT22;1838;50.742;7.158;2023-07-13T10:45:47;29.10;56.80
3644;DHT22;1838;50.742;7.158;2023-07-13T10:48:15;29.00;56.90
3644;DHT22;1838;50.742;7.158;2023-07-13T10:50:44;28.80;58.10
3644;DHT22;1838;50.742;7.158;2023-07-13T10:53:29;28.70;57.80
3644;DHT22;1838;50.742;7.158;2023-07-13T10:55:59;28.50;58.40
3644;DHT22;1838;50.742;7.158;2023-07-13T11:03:30;27.80;59.60
3644;DHT22;1838;50.742;7.158;2023-07-13T11:18:49;28.60;55.20
3644;DHT22;1838;50.742;7.158;2023-07-13T11:21:23;28.60;54.50
3644;DHT22;1838;50.742;7.158;2023-07-13T11:24:17;28.50;53.10
3644;DHT22;1838;50.742;7.158;2023-07-13T11:26:51;28.50;53.30
3644;DHT22;1838;50.742;7.158;2023-07-13T11:31:49;28.30;53.60
3644;DHT22;1838;50.742;7.158;2023-07-13T11:34:18;28.20;53.50
3644;DHT22;1838;50.742;7.158;2023-07-13T11:36:47;28.20;54.20
3644;DHT22;1838;50.742;7.158;2023-07-13T11:41:57;28.00;52.50
3644;DHT22;1838;50.742;7.158;2023-07-13T11:44:24;27.90;53.30
3644;DHT22;1838;50.742;7.158;2023-07-13T11:46:58;27.90;54.10
3644;DHT22;1838;50.742;7.158;2023-07-13T11:49:28;28.00;53.60
3644;DHT22;1838;50.742;7.158;2023-07-13T11:51:54;28.10;54.00
3644;DHT22;1838;50.742;7.158;2023-07-13T11:54:29;28.20;53.00
3644;DHT22;1838;50.742;7.158;2023-07-13T11:57:12;28.10;52.60
3644;DHT22;1838;50.742;7.158;2023-07-13T11:59:43;28.00;52.50
3644;DHT22;1838;50.742;7.158;2023-07-13T12:02:16;27.90;52.70
3644;DHT22;1838;50.742;7.158;2023-07-13T12:04:43;27.80;53.30
3644;DHT22;1838;50.742;7.158;2023-07-13T12:07:16;27.80;53.10
3644;DHT22;1838;50.742;7.158;2023-07-13T12:09:43;27.80;52.70
3644;DHT22;1838;50.742;7.158;2023-07-13T12:12:18;27.70;52.90
3644;DHT22;1838;50.742;7.158;2023-07-13T12:14:44;27.70;53.40
3644;DHT22;1838;50.742;7.158;2023-07-13T12:17:19;27.70;53.40
3644;DHT22;1838;50.742;7.158;2023-07-13T12:19:45;27.60;52.80
3644;DHT22;1838;50.742;7.158;2023-07-13T12:22:13;27.60;52.90
3644;DHT22;1838;50.742;7.158;2023-07-13T12:24:43;27.60;53.30
3644;DHT22;1838;50.742;7.158;2023-07-13T12:27:25;27.60;53.60
3644;DHT22;1838;50.742;7.158;2023-07-13T12:30:01;27.60;54.20
3644;DHT22;1838;50.742;7.158;2023-07-13T12:32:27;27.60;54.40
3644;DHT22;1838;50.742;7.158;2023-07-13T12:35:01;27.70;54.30
3644;DHT22;1838;50.742;7.158;2023-07-13T12:37:29;27.80;53.90
3644;DHT22;1838;50.742;7.158;2023-07-13T12:39:59;27.80;54.80
3644;DHT22;1838;50.742;7.158;2023-07-13T12:42:29;27.70;55.30
3644;DHT22;1838;50.742;7.158;2023-07-13T12:45:18;27.70;55.80
3644;DHT22;1838;50.742;7.158;2023-07-13T12:47:48;27.50;56.30
3644;DHT22;1838;50.742;7.158;2023-07-13T12:50:19;27.30;56.70
3644;DHT22;1838;50.742;7.158;2023-07-13T12:52:51;27.10;56.70
3644;DHT22;1838;50.742;7.158;2023-07-13T12:55:19;27.00;56.90
3644;DHT22;1838;50.742;7.158;2023-07-13T12:57:57;27.00;56.60
3644;DHT22;1838;50.742;7.158;2023-07-13T13:00:35;27.00;57.50
3644;DHT22;1838;50.742;7.158;2023-07-13T13:03:13;27.10;57.20
3644;DHT22;1838;50.742;7.158;2023-07-13T13:05:44;27.20;56.80
3644;DHT22;1838;50.742;7.158;2023-07-13T13:08:12;27.40;55.80
3644;DHT22;1838;50.742;7.158;2023-07-13T13:10:38;27.40;56.00
3644;DHT22;1838;50.742;7.158;2023-07-13T13:13:04;27.50;56.90
3644;DHT22;1838;50.742;7.158;2023-07-13T13:15:29;27.60;56.60
3644;DHT22;1838;50.742;7.158;2023-07-13T13:17:56;27.60;56.30
3644;DHT22;1838;50.742;7.158;2023-07-13T13:20:24;27.70;56.00
3644;DHT22;1838;50.742;7.158;2023-07-13T13:22:51;27.70;55.40
3644;DHT22;1838;50.742;7.158;2023-07-13T13:25:18;27.80;54.70
3644;DHT22;1838;50.742;7.158;2023-07-13T13:27:45;27.80;53.20
3644;DHT22;1838;50.742;7.158;2023-07-13T13:30:15;27.80;53.80
3644;DHT22;1838;50.742;7.158;2023-07-13T13:32:43;27.90;53.60
3644;DHT22;1838;50.742;7.158;2023-07-13T13:35:20;27.90;53.50
3644;DHT22;1838;50.742;7.158;2023-07-13T13:37:46;27.80;53.30
3644;DHT22;1838;50.742;7.158;2023-07-13T13:40:18;27.90;54.20
3644;DHT22;1838;50.742;7.158;2023-07-13T13:42:44;28.00;53.80
3644;DHT22;1838;50.742;7.158;2023-07-13T13:45:11;28.00;54.10
3644;DHT22;1838;50.742;7.158;2023-07-13T13:47:38;28.10;54.80
3644;DHT22;1838;50.742;7.158;2023-07-13T13:50:19;28.30;54.80
3644;DHT22;1838;50.742;7.158;2023-07-13T13:52:45;28.50;54.80
3644;DHT22;1838;50.742;7.158;2023-07-13T13:55:21;28.70;54.20
3644;DHT22;1838;50.742;7.158;2023-07-13T13:57:47;28.80;53.90
3644;DHT22;1838;50.742;7.158;2023-07-13T14:00:15;29.00;54.00
3644;DHT22;1838;50.742;7.158;2023-07-13T14:02:44;29.10;53.40
3644;DHT22;1838;50.742;7.158;2023-07-13T14:05:14;29.20;52.90
3644;DHT22;1838;50.742;7.158;2023-07-13T14:07:40;29.30;51.80
3644;DHT22;1838;50.742;7.158;2023-07-13T14:10:12;29.30;52.20
3644;DHT22;1838;50.742;7.158;2023-07-13T14:12:38;29.30;52.60
3644;DHT22;1838;50.742;7.158;2023-07-13T14:15:04;29.50;52.40
3644;DHT22;1838;50.742;7.158;2023-07-13T14:17:31;29.60;52.00
3644;DHT22;1838;50.742;7.158;2023-07-13T14:19:56;29.70;51.40
3644;DHT22;1838;50.742;7.158;2023-07-13T14:22:26;29.80;51.50
3644;DHT22;1838;50.742;7.158;2023-07-13T14:24:55;29.80;51.70
3644;DHT22;1838;50.742;7.158;2023-07-13T14:27:24;29.90;51.50
3644;DHT22;1838;50.742;7.158;2023-07-13T14:29:50;30.10;51.90
3644;DHT22;1838;50.742;7.158;2023-07-13T14:32:15;30.20;50.90
3644;DHT22;1838;50.742;7.158;2023-07-13T14:34:41;30.30;50.40
3644;DHT22;1838;50.742;7.158;2023-07-13T14:37:13;30.30;50.80
3644;DHT22;1838;50.742;7.158;2023-07-13T14:39:40;30.40;50.70
3644;DHT22;1838;50.742;7.158;2023-07-13T14:42:09;30.50;49.30
3644;DHT22;1838;50.742;7.158;2023-07-13T14:44:34;30.50;48.30
3644;DHT22;1838;50.742;7.158;2023-07-13T14:47:02;30.50;48.70
3644;DHT22;1838;50.742;7.158;2023-07-13T14:49:33;30.50;49.50
3644;DHT22;1838;50.742;7.158;2023-07-13T14:52:02;30.40;50.50
3644;DHT22;1838;50.742;7.158;2023-07-13T14:54:28;30.30;50.80
3644;DHT22;1838;50.742;7.158;2023-07-13T14:56:53;30.30;50.70
3644;DHT22;1838;50.742;7.158;2023-07-13T14:59:19;30.20;50.80
3644;DHT22;1838;50.742;7.158;2023-07-13T15:01:45;30.20;50.30
3644;DHT22;1838;50.742;7.158;2023-07-13T15:04:11;30.30;50.30
3644;DHT22;1838;50.742;7.158;2023-07-13T15:07:12;30.30;50.00
3644;DHT22;1838;50.742;7.158;2023-07-13T15:09:41;30.30;50.10
3644;DHT22;1838;50.742;7.158;2023-07-13T15:12:07;30.30;50.50
3644;DHT22;1838;50.742;7.158;2023-07-13T15:14:32;30.20;50.50
3644;DHT22;1838;50.742;7.158;2023-07-13T15:16:58;30.20;50.60
3644;DHT22;1838;50.742;7.158;2023-07-13T15:19:25;30.20;50.70
3644;DHT22;1838;50.742;7.158;2023-07-13T15:21:51;30.30;50.40
3644;DHT22;1838;50.742;7.158;2023-07-13T15:24:20;30.10;49.70
3644;DHT22;1838;50.742;7.158;2023-07-13T15:26:46;30.10;49.30
3644;DHT22;1838;50.742;7.158;2023-07-13T15:29:15;30.00;49.00
3644;DHT22;1838;50.742;7.158;2023-07-13T15:31:41;29.70;48.60
3644;DHT22;1838;50.742;7.158;2023-07-13T15:34:15;29.50;48.90
3644;DHT22;1838;50.742;7.158;2023-07-13T15:36:41;29.40;49.40
3644;DHT22;1838;50.742;7.158;2023-07-13T15:39:13;29.30;49.80
3644;DHT22;1838;50.742;7.158;2023-07-13T15:41:41;29.40;50.30
3644;DHT22;1838;50.742;7.158;2023-07-13T15:44:27;29.10;50.60
3644;DHT22;1838;50.742;7.158;2023-07-13T15:46:54;29.30;50.90
3644;DHT22;1838;50.742;7.158;2023-07-13T15:49:20;29.50;50.70
3644;DHT22;1838;50.742;7.158;2023-07-13T15:51:47;29.60;50.50
3644;DHT22;1838;50.742;7.158;2023-07-13T15:54:15;29.70;50.20
3644;DHT22;1838;50.742;7.158;2023-07-13T15:56:41;29.80;50.20
3644;DHT22;1838;50.742;7.158;2023-07-13T15:59:10;29.90;50.00
3644;DHT22;1838;50.742;7.158;2023-07-13T16:01:38;29.90;49.90
3644;DHT22;1838;50.742;7.158;2023-07-13T16:04:04;29.70;50.00
3644;DHT22;1838;50.742;7.158;2023-07-13T16:06:35;29.40;50.70
3644;DHT22;1838;50.742;7.158;2023-07-13T16:09:03;29.40;51.20
3644;DHT22;1838;50.742;7.158;2023-07-13T16:11:34;29.40;50.50
3644;DHT22;1838;50.742;7.158;2023-07-13T16:14:00;29.40;51.00
3644;DHT22;1838;50.742;7.158;2023-07-13T16:16:28;29.20;51.30
3644;DHT22;1838;50.742;7.158;2023-07-13T16:18:58;28.90;51.50
3644;DHT22;1838;50.742;7.158;2023-07-13T16:21:27;28.80;52.10
3644;DHT22;1838;50.742;7.158;2023-07-13T16:23:54;28.90;52.30
3644;DHT22;1838;50.742;7.158;2023-07-13T16:26:28;28.80;52.00
3644;DHT22;1838;50.742;7.158;2023-07-13T16:28:58;28.40;52.30
3644;DHT22;1838;50.742;7.158;2023-07-13T16:31:30;28.30;52.90
3644;DHT22;1838;50.742;7.158;2023-07-13T16:33:57;28.20;53.60
3644;DHT22;1838;50.742;7.158;2023-07-13T16:36:24;28.00;53.60
3644;DHT22;1838;50.742;7.158;2023-07-13T16:38:50;27.70;54.20
3644;DHT22;1838;50.742;7.158;2023-07-13T16:41:16;27.60;54.80